Terminal Aerodrome Forecast
Issued by NWS

Current Version | Previous Version | Text Only | Print | Product List | Glossary On
Versions: 1 2 3 4 5 6 7 8 9 10 11 12 13 14 15 16 17 18 19 20 21 22 23 24 25 26
000
FTUS43 KDDC 212338
TAFGCK
TAF
KGCK 212338Z 2200/2224 19013G20KT P6SM BKN250
     FM220400 22006KT P6SM VCTS SCT060CB
     FM220900 36006KT P6SM BKN015
     FM221100 04016G25KT P6SM BKN015
     FM221500 01009KT P6SM SCT035
     FM222000 05011KT P6SM FEW150=

USA.gov is the U.S. government's official web portal to all federal, state and local government web resources and services.